Time;durP1;ratioP1;P1;durP2;ratioP2;P2;SDS_P1;SDS_P2;PMS_P1;PMS_P2;Temp;Humidity;BMP_temperature;BMP_pressure;BME280_temperature;BME280_humidity;BME280_pressure;Samples;Min_cycle;Max_cycle;Signal;HPM_P1;HPM_P2
2022/11/21 00:00:38;;;;;;;30.63;17.90;;;1.40;99.90;;;;;;5007269;28;20073;-75
2022/11/21 00:03:04;;;;;;;25.52;18.13;;;1.40;99.90;;;;;;5007154;28;20042;-75
2022/11/21 00:05:31;;;;;;;24.77;16.08;;;1.40;99.90;;;;;;5005992;28;20401;-76
2022/11/21 00:07:57;;;;;;;24.60;16.83;;;1.50;99.90;;;;;;5007137;28;20476;-74
2022/11/21 00:10:24;;;;;;;28.83;17.92;;;1.40;99.90;;;;;;5006707;28;20042;-74
2022/11/21 00:12:55;;;;;;;26.23;17.38;;;1.40;99.90;;;;;;5007015;28;20050;-77
2022/11/21 00:15:21;;;;;;;26.17;18.48;;;1.50;99.90;;;;;;4989544;28;20393;-74
2022/11/21 00:17:47;;;;;;;26.55;17.98;;;1.50;99.90;;;;;;4989701;28;20109;-74
2022/11/21 00:20:13;;;;;;;28.98;20.02;;;1.50;99.90;;;;;;5007492;28;20046;-76
2022/11/21 00:22:39;;;;;;;27.83;16.52;;;1.60;99.90;;;;;;5009587;28;20044;-75
2022/11/21 00:25:05;;;;;;;25.73;17.50;;;1.60;99.90;;;;;;5029407;28;20151;-75
2022/11/21 00:27:31;;;;;;;27.70;18.00;;;1.60;99.90;;;;;;5030215;28;20412;-74
2022/11/21 00:29:56;;;;;;;24.50;17.30;;;1.60;99.90;;;;;;4985428;28;20049;-75
2022/11/21 00:32:22;;;;;;;24.58;16.90;;;1.60;99.90;;;;;;5010417;28;20045;-77
2022/11/21 00:34:47;;;;;;;27.15;18.52;;;1.70;99.90;;;;;;5010737;28;20038;-77
2022/11/21 00:37:13;;;;;;;29.13;18.05;;;1.70;99.90;;;;;;5010017;28;20381;-76
2022/11/21 00:39:39;;;;;;;30.08;18.13;;;1.60;99.90;;;;;;5010839;28;20131;-75
2022/11/21 00:42:05;;;;;;;24.48;18.02;;;1.70;99.90;;;;;;4992720;28;20049;-77
2022/11/21 00:44:30;;;;;;;25.17;17.80;;;1.70;99.90;;;;;;5010720;28;20049;-76
2022/11/21 00:46:56;;;;;;;27.42;18.08;;;1.60;99.90;;;;;;5010472;28;20048;-77
2022/11/21 00:49:22;;;;;;;23.80;17.55;;;1.60;99.90;;;;;;5010498;28;20049;-74
2022/11/21 00:51:47;;;;;;;22.48;15.90;;;1.40;99.90;;;;;;5009483;28;20038;-77
2022/11/21 00:54:13;;;;;;;27.88;17.73;;;1.40;99.90;;;;;;5010180;28;20046;-77
2022/11/21 00:56:38;;;;;;;28.45;19.63;;;1.50;99.90;;;;;;5010092;28;20569;-77
2022/11/21 00:59:04;;;;;;;24.25;17.08;;;1.50;99.90;;;;;;5010365;28;20048;-75
2022/11/21 01:01:30;;;;;;;23.13;16.10;;;1.50;99.90;;;;;;5010428;28;20042;-76
2022/11/21 01:03:57;;;;;;;24.45;16.60;;;1.40;99.90;;;;;;5010351;28;20057;-77
2022/11/21 01:06:23;;;;;;;26.10;15.88;;;1.50;99.90;;;;;;5008906;28;20049;-76
2022/11/21 01:08:48;;;;;;;26.83;19.02;;;1.50;99.90;;;;;;5010072;28;20050;-74
2022/11/21 01:11:17;;;;;;;28.70;16.13;;;1.50;99.90;;;;;;5010328;28;20042;-74
2022/11/21 01:13:44;;;;;;;33.15;20.48;;;1.50;99.90;;;;;;5020746;28;20038;-74
2022/11/21 01:16:15;;;;;;;24.20;16.85;;;1.40;99.90;;;;;;5010392;28;20112;-75
2022/11/21 01:18:41;;;;;;;23.90;16.52;;;1.40;99.90;;;;;;4992446;28;20060;-75
2022/11/21 01:21:22;;;;;;;28.08;17.27;;;1.40;99.90;;;;;;4991887;28;20037;-76
2022/11/21 01:23:48;;;;;;;29.05;17.33;;;1.40;99.90;;;;;;5010262;28;20042;-76
2022/11/21 01:26:16;;;;;;;25.80;17.38;;;1.40;99.90;;;;;;5011378;28;20121;-74
2022/11/21 01:28:42;;;;;;;27.02;17.27;;;1.30;99.90;;;;;;5010776;28;20058;-76
2022/11/21 01:31:16;;;;;;;29.60;19.27;;;1.30;99.90;;;;;;4993496;28;20144;-75
2022/11/21 01:33:43;;;;;;;29.33;18.63;;;1.30;99.90;;;;;;4992196;28;20069;-76
2022/11/21 01:36:15;;;;;;;27.52;18.65;;;1.30;99.90;;;;;;4991185;28;20045;-76
2022/11/21 01:38:43;;;;;;;24.80;18.35;;;1.30;99.90;;;;;;5009363;28;20128;-75
2022/11/21 01:41:10;;;;;;;26.88;17.63;;;1.30;99.90;;;;;;4991912;28;20041;-74
2022/11/21 01:43:37;;;;;;;27.60;18.73;;;1.20;99.90;;;;;;5008598;28;20054;-76
2022/11/21 01:46:08;;;;;;;28.50;20.42;;;1.00;99.90;;;;;;5008755;28;20081;-75
2022/11/21 01:48:42;;;;;;;24.38;15.23;;;1.00;99.90;;;;;;4974742;28;20050;-75
2022/11/21 01:51:20;;;;;;;25.50;15.90;;;0.90;99.90;;;;;;4990454;28;20406;-73
2022/11/21 01:54:09;;;;;;;23.85;15.65;;;1.00;99.90;;;;;;5008958;28;20038;-75
2022/11/21 01:56:43;;;;;;;26.02;17.20;;;0.90;99.90;;;;;;4990959;28;20405;-75
2022/11/21 01:59:15;;;;;;;28.60;19.15;;;0.90;99.90;;;;;;5008706;28;20408;-75
2022/11/21 02:01:42;;;;;;;28.20;17.83;;;0.90;99.90;;;;;;5008315;28;20405;-76
2022/11/21 02:04:08;;;;;;;29.05;18.63;;;0.90;99.90;;;;;;4990719;28;20655;-74
2022/11/21 02:06:36;;;;;;;28.75;17.75;;;0.70;99.90;;;;;;4990009;28;20104;-74
2022/11/21 02:09:03;;;;;;;27.15;16.75;;;0.70;99.90;;;;;;5007988;28;20042;-77
2022/11/21 02:11:38;;;;;;;25.50;16.15;;;0.80;99.90;;;;;;5008380;28;20045;-74
2022/11/21 02:14:04;;;;;;;24.40;15.80;;;0.70;99.90;;;;;;5066403;23;20198;-75
2022/11/21 02:16:30;;;;;;;30.33;18.48;;;0.60;99.90;;;;;;4989233;28;20046;-76
2022/11/21 02:18:56;;;;;;;29.40;20.48;;;0.60;99.90;;;;;;4988988;28;20397;-75
2022/11/21 02:21:38;;;;;;;29.10;17.80;;;0.60;99.90;;;;;;5001087;28;20050;-75
2022/11/21 02:24:18;;;;;;;29.75;18.83;;;0.50;99.90;;;;;;4988670;28;20058;-76
2022/11/21 02:26:47;;;;;;;26.17;17.08;;;0.50;99.90;;;;;;4989107;28;20066;-75
2022/11/21 02:29:13;;;;;;;25.75;17.08;;;0.60;99.90;;;;;;4988880;28;20046;-74
2022/11/21 02:31:39;;;;;;;39.80;21.90;;;0.60;99.90;;;;;;4987195;28;20408;-75
2022/11/21 02:34:05;;;;;;;26.63;17.63;;;0.60;99.90;;;;;;4989223;28;20045;-75
2022/11/21 02:36:44;;;;;;;29.45;17.10;;;0.70;99.90;;;;;;4987723;28;20457;-75
2022/11/21 02:39:15;;;;;;;38.40;20.95;;;0.60;99.90;;;;;;4989606;28;20458;-75
2022/11/21 02:41:48;;;;;;;29.20;19.52;;;0.60;99.90;;;;;;4988269;28;20084;-76
2022/11/21 02:44:24;;;;;;;28.80;18.67;;;0.50;99.90;;;;;;4988829;28;20046;-74
2022/11/21 02:46:51;;;;;;;26.95;17.45;;;0.60;99.90;;;;;;4971035;28;20101;-75
2022/11/21 02:49:26;;;;;;;25.73;17.15;;;0.50;99.90;;;;;;4988552;28;20065;-74
2022/11/21 02:51:52;;;;;;;34.22;21.30;;;0.50;99.90;;;;;;4987373;28;20089;-74
2022/11/21 02:54:17;;;;;;;28.70;17.58;;;0.50;99.90;;;;;;4988313;28;20046;-74
2022/11/21 02:56:43;;;;;;;28.35;16.77;;;0.40;99.90;;;;;;5006200;28;20037;-77
2022/11/21 02:59:09;;;;;;;24.38;15.95;;;0.40;99.90;;;;;;5007865;28;20038;-76
2022/11/21 03:01:35;;;;;;;26.13;16.45;;;0.10;99.90;;;;;;5007200;28;20038;-76
2022/11/21 03:04:00;;;;;;;24.40;17.15;;;0.00;99.90;;;;;;5007298;28;20105;-75
2022/11/21 03:06:26;;;;;;;28.90;18.33;;;-0.30;99.90;;;;;;5006708;28;20045;-76
2022/11/21 03:08:52;;;;;;;25.88;17.00;;;-0.30;99.90;;;;;;5007403;28;20042;-75
2022/11/21 03:11:17;;;;;;;27.45;17.60;;;-0.30;99.90;;;;;;5007700;28;20125;-76
2022/11/21 03:13:43;;;;;;;31.58;19.88;;;-0.20;99.90;;;;;;5007783;28;20057;-75
2022/11/21 03:16:09;;;;;;;23.75;17.60;;;-0.20;99.90;;;;;;5007445;28;20504;-75
2022/11/21 03:18:35;;;;;;;30.30;19.13;;;-0.10;99.90;;;;;;5005883;28;20049;-74
2022/11/21 03:21:00;;;;;;;26.88;18.50;;;-0.10;99.90;;;;;;4974618;28;20129;-76
2022/11/21 03:23:26;;;;;;;29.83;18.25;;;-0.10;99.90;;;;;;5005525;28;20409;-77
2022/11/21 03:25:52;;;;;;;28.10;18.38;;;-0.30;99.90;;;;;;5007455;28;20038;-73
2022/11/21 03:28:17;;;;;;;28.58;17.38;;;-0.20;99.90;;;;;;5007476;28;20133;-79
2022/11/21 03:30:43;;;;;;;29.08;18.90;;;-0.30;99.90;;;;;;5006687;28;20408;-75
2022/11/21 03:33:09;;;;;;;30.83;19.65;;;-0.20;99.90;;;;;;5007023;28;20081;-75
2022/11/21 03:35:34;;;;;;;28.48;18.58;;;-0.20;99.90;;;;;;4988541;28;20042;-75
2022/11/21 03:38:00;;;;;;;26.63;17.30;;;-0.20;99.90;;;;;;4989983;28;20054;-75
2022/11/21 03:40:26;;;;;;;25.17;17.85;;;-0.20;99.90;;;;;;5006938;28;20038;-75
2022/11/21 03:42:51;;;;;;;32.25;18.75;;;-0.30;99.90;;;;;;5007227;28;20136;-76
2022/11/21 03:45:17;;;;;;;29.17;17.40;;;-0.30;99.90;;;;;;5007334;28;20049;-76
2022/11/21 03:47:43;;;;;;;28.65;17.90;;;-0.40;99.90;;;;;;5007398;28;20049;-75
2022/11/21 03:50:09;;;;;;;27.13;18.33;;;-0.20;99.90;;;;;;5005471;28;20034;-77
2022/11/21 03:52:35;;;;;;;27.25;18.35;;;-0.30;99.90;;;;;;4993604;28;20043;-75
2022/11/21 03:55:00;;;;;;;30.58;21.08;;;-0.30;99.90;;;;;;4987347;28;20057;-76
2022/11/21 03:57:26;;;;;;;29.63;20.17;;;-0.40;99.90;;;;;;4988570;28;20221;-75
2022/11/21 03:59:52;;;;;;;26.38;17.33;;;-0.20;99.90;;;;;;4991382;28;20104;-73
2022/11/21 04:02:17;;;;;;;32.28;19.90;;;-0.40;99.90;;;;;;4973242;28;20101;-78
2022/11/21 04:04:43;;;;;;;32.70;22.98;;;-0.30;99.90;;;;;;4991579;28;20054;-76
2022/11/21 04:07:09;;;;;;;32.45;21.17;;;-0.30;99.90;;;;;;4990399;28;20400;-76
2022/11/21 04:09:34;;;;;;;29.08;19.98;;;-0.30;99.90;;;;;;4992812;28;20045;-74
2022/11/21 04:12:00;;;;;;;30.25;19.30;;;-0.40;99.90;;;;;;5010941;28;20038;-77
2022/11/21 04:14:26;;;;;;;32.08;20.05;;;-0.30;99.90;;;;;;5010140;28;20507;-74
2022/11/21 04:16:52;;;;;;;33.42;20.58;;;-0.20;99.90;;;;;;4992701;28;20046;-75
2022/11/21 04:19:17;;;;;;;33.75;20.92;;;-0.30;99.90;;;;;;5010737;28;20496;-76
2022/11/21 04:21:43;;;;;;;33.80;22.33;;;-0.30;99.90;;;;;;5010181;28;20041;-75
2022/11/21 04:24:09;;;;;;;29.58;20.08;;;-0.30;99.90;;;;;;4992842;28;20493;-77
2022/11/21 04:26:34;;;;;;;30.90;18.00;;;-0.50;99.90;;;;;;5009803;28;20042;-75
2022/11/21 04:29:00;;;;;;;39.78;19.80;;;-0.50;99.90;;;;;;5010138;28;20120;-77
2022/11/21 04:31:26;;;;;;;26.27;17.27;;;-0.80;99.90;;;;;;5009634;28;20050;-76
2022/11/21 04:33:52;;;;;;;27.17;17.20;;;-0.80;99.90;;;;;;5010240;28;20070;-76
2022/11/21 04:36:17;;;;;;;29.73;20.00;;;-0.80;99.90;;;;;;5009045;28;20519;-77
2022/11/21 04:38:43;;;;;;;26.48;18.77;;;-0.70;99.90;;;;;;5009831;28;20042;-75
2022/11/21 04:41:09;;;;;;;30.90;19.58;;;-0.70;99.90;;;;;;4992066;28;20247;-76
2022/11/21 04:43:35;;;;;;;30.52;19.10;;;-0.60;99.90;;;;;;4990267;28;20038;-73
2022/11/21 04:46:01;;;;;;;27.85;17.17;;;-0.80;99.90;;;;;;4990235;28;20545;-73
2022/11/21 04:48:26;;;;;;;32.47;21.08;;;-0.70;99.90;;;;;;4989874;28;20191;-76
2022/11/21 04:50:52;;;;;;;32.55;18.60;;;-0.70;99.90;;;;;;4989435;28;20105;-76
2022/11/21 04:53:18;;;;;;;36.70;23.10;;;-0.60;99.90;;;;;;4989833;28;20042;-77
2022/11/21 04:55:43;;;;;;;30.13;18.80;;;-0.70;99.90;;;;;;4989324;28;20050;-74
2022/11/21 04:58:09;;;;;;;30.50;20.35;;;-0.50;99.90;;;;;;4990264;28;20050;-74
2022/11/21 05:00:35;;;;;;;34.42;19.33;;;-0.60;99.90;;;;;;4989464;28;20092;-75
2022/11/21 05:03:05;;;;;;;36.08;19.92;;;-0.50;99.90;;;;;;4989954;28;20309;-78
2022/11/21 05:05:31;;;;;;;37.30;20.88;;;-0.50;99.90;;;;;;4988618;28;20081;-74
2022/11/21 05:07:56;;;;;;;32.97;20.38;;;-0.50;99.90;;;;;;4989794;28;20370;-74
2022/11/21 05:10:22;;;;;;;40.60;21.02;;;-0.60;99.90;;;;;;5001444;28;20193;-75
2022/11/21 05:15:43;;;;;;;33.03;21.90;;;-0.50;99.90;;;;;;5009769;28;20466;-75
2022/11/21 05:18:09;;;;;;;35.42;21.67;;;-0.50;99.90;;;;;;5009328;28;20042;-75
2022/11/21 05:20:35;;;;;;;40.53;24.05;;;-0.60;99.90;;;;;;5008143;28;20460;-76
2022/11/21 05:23:00;;;;;;;36.35;23.23;;;-0.70;99.90;;;;;;5009173;28;20041;-74
2022/11/21 05:25:26;;;;;;;38.47;22.15;;;-0.60;99.90;;;;;;5008363;28;20065;-74
2022/11/21 05:27:55;;;;;;;36.45;25.50;;;-0.80;99.90;;;;;;5009193;28;20050;-76
2022/11/21 05:30:24;;;;;;;29.95;19.05;;;-0.70;99.90;;;;;;5008822;28;20046;-74
2022/11/21 05:32:49;;;;;;;34.65;21.20;;;-0.80;99.90;;;;;;5008497;28;20073;-77
2022/11/21 05:35:15;;;;;;;31.02;21.88;;;-0.80;99.90;;;;;;5007699;28;20409;-77
2022/11/21 05:37:41;;;;;;;33.15;21.90;;;-0.90;99.90;;;;;;5007740;28;20052;-76
2022/11/21 05:40:07;;;;;;;33.80;21.33;;;-0.80;99.90;;;;;;5007625;28;20120;-76
2022/11/21 05:45:17;;;;;;;34.28;20.92;;;-0.80;99.90;;;;;;4988732;28;20054;-77
2022/11/21 05:47:42;;;;;;;39.38;21.30;;;-0.80;99.90;;;;;;4970810;28;20042;-75
2022/11/21 05:50:08;;;;;;;40.45;24.15;;;-0.90;99.90;;;;;;4969645;28;20085;-74
2022/11/21 05:52:34;;;;;;;35.28;22.00;;;-0.90;99.90;;;;;;4970082;28;20053;-77
2022/11/21 05:54:59;;;;;;;35.35;22.63;;;-0.90;99.90;;;;;;4988658;28;20120;-75
2022/11/21 05:57:25;;;;;;;40.65;23.85;;;-0.80;99.90;;;;;;4987776;28;20043;-74
2022/11/21 05:59:51;;;;;;;37.35;22.80;;;-0.80;99.90;;;;;;4970466;28;20054;-74
2022/11/21 06:05:00;;;;;;;34.25;21.73;;;-1.00;99.90;;;;;;4969100;28;20057;-73
2022/11/21 06:07:26;;;;;;;36.45;22.75;;;-1.10;99.90;;;;;;4988009;28;20038;-74
2022/11/21 06:09:52;;;;;;;38.65;23.98;;;-1.00;99.90;;;;;;4954522;28;20050;-74
2022/11/21 06:12:17;;;;;;;36.22;22.45;;;-0.90;99.90;;;;;;4970770;28;20052;-74
2022/11/21 06:14:43;;;;;;;35.17;23.40;;;-0.90;99.90;;;;;;4988631;28;20093;-74
2022/11/21 06:17:10;;;;;;;42.42;24.45;;;-0.90;99.90;;;;;;4987902;28;20231;-74
2022/11/21 06:19:36;;;;;;;36.03;23.73;;;-0.80;99.90;;;;;;4985919;28;20133;-75
2022/11/21 06:22:01;;;;;;;39.83;22.38;;;-0.90;99.90;;;;;;4970074;28;20137;-75
2022/11/21 06:24:27;;;;;;;35.45;21.55;;;-0.80;99.90;;;;;;4953683;28;20489;-74
2022/11/21 06:26:52;;;;;;;42.10;23.60;;;-0.80;99.90;;;;;;4987799;28;20406;-74
2022/11/21 06:29:21;;;;;;;38.35;23.65;;;-0.90;99.90;;;;;;4969822;28;20050;-75
2022/11/21 06:31:46;;;;;;;42.40;23.60;;;-0.90;99.90;;;;;;4970395;28;20038;-74
2022/11/21 06:34:12;;;;;;;32.75;22.20;;;-0.90;99.90;;;;;;4969567;28;20049;-74
2022/11/21 06:36:38;;;;;;;37.63;23.95;;;-0.90;99.90;;;;;;4969437;28;20335;-75
2022/11/21 06:39:03;;;;;;;35.67;22.63;;;-0.80;99.90;;;;;;4988722;28;20035;-74
2022/11/21 06:41:30;;;;;;;38.03;22.33;;;-0.80;99.90;;;;;;4987132;28;20053;-74
2022/11/21 06:43:59;;;;;;;39.38;23.67;;;-0.80;99.90;;;;;;4987904;28;20057;-75
2022/11/21 06:46:25;;;;;;;44.73;23.30;;;-0.80;99.90;;;;;;4988112;28;20058;-75
2022/11/21 06:48:51;;;;;;;40.20;22.00;;;-0.90;99.90;;;;;;4987752;28;20053;-74
2022/11/21 06:51:21;;;;;;;38.70;22.15;;;-0.90;99.90;;;;;;4986940;28;20050;-74
2022/11/21 06:53:54;;;;;;;36.45;23.15;;;-0.70;99.90;;;;;;4987767;28;20053;-74
2022/11/21 06:56:21;;;;;;;36.72;22.85;;;-0.70;99.90;;;;;;4986998;28;20505;-74
2022/11/21 06:58:47;;;;;;;37.60;20.65;;;-0.90;99.90;;;;;;4988148;28;20043;-74
2022/11/21 07:01:13;;;;;;;33.17;22.17;;;-0.90;99.90;;;;;;4969972;28;20126;-75
2022/11/21 07:03:39;;;;;;;37.53;20.00;;;-0.90;99.90;;;;;;4969441;28;20444;-75
2022/11/21 07:06:05;;;;;;;36.53;22.77;;;-0.90;99.90;;;;;;4985089;28;20045;-74
2022/11/21 07:08:34;;;;;;;42.08;21.13;;;-0.80;99.90;;;;;;4970323;28;20379;-75
2022/11/21 07:11:02;;;;;;;33.63;20.17;;;-0.80;99.90;;;;;;5006643;28;20053;-75
2022/11/21 07:13:28;;;;;;;38.00;23.35;;;-0.80;99.90;;;;;;5006517;28;20507;-74
2022/11/21 07:15:59;;;;;;;30.92;19.48;;;-0.70;99.90;;;;;;5006788;28;20133;-74
2022/11/21 07:18:26;;;;;;;31.77;20.60;;;-0.70;99.90;;;;;;5006354;28;20227;-75
2022/11/21 07:20:51;;;;;;;35.42;21.55;;;-0.60;99.90;;;;;;5005770;28;20534;-75
2022/11/21 07:23:17;;;;;;;33.63;20.10;;;-0.80;99.90;;;;;;5006649;28;20077;-74
2022/11/21 07:25:43;;;;;;;70.55;25.85;;;-0.70;99.90;;;;;;5006762;28;20088;-75
2022/11/21 07:28:09;;;;;;;34.45;20.80;;;-0.70;99.90;;;;;;4988544;28;20037;-73
2022/11/21 07:30:35;;;;;;;35.17;20.45;;;-0.70;99.90;;;;;;4989395;28;20046;-74
2022/11/21 07:33:06;;;;;;;35.42;22.08;;;-0.70;99.90;;;;;;5010387;28;20061;-74
2022/11/21 07:35:33;;;;;;;34.05;21.02;;;-0.80;99.90;;;;;;5009375;28;20369;-74
2022/11/21 07:37:59;;;;;;;38.65;22.17;;;-0.70;99.90;;;;;;5010591;28;20046;-74
2022/11/21 07:40:26;;;;;;;37.75;23.60;;;-0.60;99.90;;;;;;4992820;28;20038;-76
2022/11/21 07:42:51;;;;;;;35.38;22.23;;;-0.70;99.90;;;;;;4990547;28;20089;-75
2022/11/21 07:45:17;;;;;;;30.90;19.95;;;-0.60;99.90;;;;;;4991290;28;20536;-76
2022/11/21 07:47:43;;;;;;;35.13;22.45;;;-0.50;99.90;;;;;;4991841;28;20077;-73
2022/11/21 07:50:10;;;;;;;30.85;19.13;;;-0.50;99.90;;;;;;4990131;28;20050;-75
2022/11/21 07:52:37;;;;;;;30.73;20.52;;;-0.80;99.90;;;;;;4990566;28;20034;-73
2022/11/21 07:55:04;;;;;;;35.05;20.98;;;-0.70;99.90;;;;;;4991076;28;20046;-74
2022/11/21 07:57:31;;;;;;;32.88;22.48;;;-0.80;99.90;;;;;;4990717;28;20111;-76
2022/11/21 07:59:57;;;;;;;35.83;22.52;;;-0.80;99.90;;;;;;4989939;28;20054;-75
2022/11/21 08:02:27;;;;;;;36.47;21.38;;;-0.70;99.90;;;;;;4990232;28;20161;-75
2022/11/21 08:04:53;;;;;;;38.90;25.10;;;-0.80;99.90;;;;;;4989607;28;20046;-75
2022/11/21 08:07:21;;;;;;;33.60;20.00;;;-0.60;99.90;;;;;;4990098;28;20133;-75
2022/11/21 08:09:47;;;;;;;35.67;22.00;;;-0.50;99.90;;;;;;4990808;28;20053;-74
2022/11/21 08:12:13;;;;;;;37.65;23.33;;;-0.40;99.90;;;;;;5005803;28;20125;-75
2022/11/21 08:14:40;;;;;;;39.65;25.35;;;-0.50;99.90;;;;;;5004803;28;20058;-75
2022/11/21 08:17:06;;;;;;;35.90;22.10;;;-0.30;99.90;;;;;;4990451;28;20050;-76
2022/11/21 08:19:33;;;;;;;39.83;23.67;;;-0.30;99.90;;;;;;4989808;28;20414;-75
2022/11/21 08:21:59;;;;;;;34.00;22.67;;;-0.30;99.90;;;;;;4990246;28;20058;-75
2022/11/21 08:24:24;;;;;;;34.67;22.30;;;-0.10;99.90;;;;;;4989880;28;20049;-74
2022/11/21 08:26:51;;;;;;;31.80;22.23;;;-0.30;99.90;;;;;;4990231;28;20172;-75
2022/11/21 08:29:17;;;;;;;38.83;23.95;;;-0.20;99.90;;;;;;4990775;28;20049;-74
2022/11/21 08:31:43;;;;;;;39.90;25.88;;;-0.10;99.90;;;;;;4990690;28;20045;-75
2022/11/21 08:34:10;;;;;;;35.28;21.92;;;0.00;99.90;;;;;;4972290;28;20051;-75
2022/11/21 08:36:36;;;;;;;33.28;23.35;;;0.00;99.90;;;;;;4990510;28;20338;-75
2022/11/21 08:39:02;;;;;;;33.88;21.98;;;0.00;99.90;;;;;;4998853;28;20053;-76
2022/11/21 08:44:12;;;;;;;36.67;22.23;;;0.20;99.90;;;;;;5008474;28;20413;-76
2022/11/21 08:46:38;;;;;;;38.65;22.70;;;0.20;99.90;;;;;;5008865;28;20034;-75
2022/11/21 08:49:04;;;;;;;35.40;23.48;;;0.10;99.90;;;;;;5007885;28;20061;-75
2022/11/21 08:51:30;;;;;;;30.75;20.38;;;0.20;99.90;;;;;;5007468;28;20113;-75
2022/11/21 08:53:56;;;;;;;43.30;21.77;;;-0.10;99.90;;;;;;4991672;28;20129;-76
2022/11/21 08:56:21;;;;;;;34.13;22.30;;;0.10;99.90;;;;;;5008676;28;20038;-75
2022/11/21 08:58:47;;;;;;;33.08;18.63;;;0.10;99.90;;;;;;5009540;28;20100;-76
2022/11/21 09:01:13;;;;;;;33.28;21.27;;;0.20;99.90;;;;;;5009697;28;20042;-75
2022/11/21 09:03:39;;;;;;;35.33;20.90;;;0.20;99.90;;;;;;5009087;28;20377;-75
2022/11/21 09:06:04;;;;;;;31.65;21.55;;;0.30;99.90;;;;;;5008241;28;20092;-75
2022/11/21 09:08:30;;;;;;;33.13;21.17;;;0.10;99.90;;;;;;4990744;28;20037;-75
2022/11/21 09:10:56;;;;;;;39.53;23.63;;;0.30;99.90;;;;;;4991167;28;20045;-75
2022/11/21 09:13:22;;;;;;;33.72;22.70;;;0.30;99.90;;;;;;5008015;28;20062;-75
2022/11/21 09:18:33;;;;;;;32.60;20.38;;;0.30;99.90;;;;;;5008327;28;20105;-76
2022/11/21 09:20:59;;;;;;;36.40;21.50;;;0.10;99.90;;;;;;5008386;28;20468;-75
2022/11/21 09:23:25;;;;;;;33.15;22.25;;;0.30;99.90;;;;;;5008647;28;20046;-75
2022/11/21 09:25:51;;;;;;;27.45;18.80;;;0.40;99.90;;;;;;5008036;28;20065;-74
2022/11/21 09:28:16;;;;;;;26.42;18.77;;;0.50;99.90;;;;;;5008430;28;20133;-75
2022/11/21 09:30:42;;;;;;;33.03;20.98;;;0.40;99.90;;;;;;4990407;28;20433;-74
2022/11/21 09:33:13;;;;;;;28.23;17.92;;;0.50;99.90;;;;;;5008442;28;20092;-74
2022/11/21 09:35:39;;;;;;;30.20;15.93;;;0.50;99.90;;;;;;5006827;28;20397;-76
2022/11/21 09:38:05;;;;;;;23.65;16.90;;;0.60;99.90;;;;;;5006119;28;20038;-74
2022/11/21 09:40:33;;;;;;;27.50;17.95;;;0.50;99.90;;;;;;4988117;28;20066;-74
2022/11/21 09:42:58;;;;;;;28.95;20.30;;;0.60;99.90;;;;;;4997059;28;20121;-75
2022/11/21 09:45:43;;;;;;;30.60;18.38;;;0.30;99.90;;;;;;5007452;28;20130;-76
2022/11/21 09:48:19;;;;;;;27.15;18.70;;;0.50;99.90;;;;;;5008117;28;20053;-74
2022/11/21 09:50:50;;;;;;;31.30;20.02;;;0.50;99.90;;;;;;5007705;28;20036;-75
2022/11/21 09:53:36;;;;;;;32.58;20.33;;;0.40;99.90;;;;;;5008099;28;20045;-75
2022/11/21 09:56:09;;;;;;;33.17;19.20;;;0.70;99.90;;;;;;5007115;28;20042;-75
2022/11/21 09:58:46;;;;;;;33.00;19.40;;;0.50;99.90;;;;;;5007824;28;20050;-74
2022/11/21 10:01:13;;;;;;;33.65;19.17;;;0.80;99.90;;;;;;5008340;28;20440;-74
2022/11/21 10:03:48;;;;;;;28.40;16.95;;;0.80;99.90;;;;;;5007342;28;20045;-74
2022/11/21 10:06:24;;;;;;;26.52;21.48;;;0.90;99.90;;;;;;4990670;28;20333;-74
2022/11/21 10:09:17;;;;;;;31.92;18.23;;;0.90;99.90;;;;;;5007526;28;20033;-74
2022/11/21 10:15:00;;;;;;;26.25;17.95;;;1.10;99.90;;;;;;4988066;28;20060;-75
2022/11/21 10:18:07;;;;;;;29.58;16.23;;;1.00;99.90;;;;;;4987655;28;20050;-75
2022/11/21 10:20:54;;;;;;;30.77;20.60;;;1.00;99.90;;;;;;4978786;28;20058;-76
2022/11/21 10:23:34;;;;;;;23.42;15.95;;;1.10;99.90;;;;;;4987285;28;20437;-74
2022/11/21 10:26:17;;;;;;;27.77;16.73;;;1.00;99.90;;;;;;4987716;28;20077;-76
2022/11/21 10:29:07;;;;;;;23.63;15.45;;;1.20;99.90;;;;;;4988049;28;20452;-75
2022/11/21 10:31:37;;;;;;;22.77;14.40;;;1.10;99.90;;;;;;4987836;28;20050;-75
2022/11/21 10:34:10;;;;;;;24.23;16.45;;;1.40;99.90;;;;;;4987050;28;20046;-75
2022/11/21 10:36:38;;;;;;;23.65;15.55;;;1.50;99.90;;;;;;4970174;28;20054;-76
2022/11/21 10:39:18;;;;;;;22.67;14.35;;;1.70;99.90;;;;;;4998073;28;20077;-76
2022/11/21 10:42:25;;;;;;;23.73;15.55;;;1.50;99.90;;;;;;5008064;28;20046;-75
2022/11/21 10:47:36;;;;;;;21.38;14.65;;;1.80;99.90;;;;;;5006865;28;20042;-74
2022/11/21 10:50:08;;;;;;;21.67;15.90;;;1.80;99.90;;;;;;4988411;28;20046;-76
2022/11/21 10:52:41;;;;;;;17.65;11.90;;;1.80;99.90;;;;;;5006698;28;20038;-77
2022/11/21 10:55:09;;;;;;;18.98;13.23;;;1.90;99.90;;;;;;5007507;28;20045;-74
2022/11/21 10:57:48;;;;;;;18.80;15.25;;;2.10;99.90;;;;;;5006656;28;20416;-75
2022/11/21 11:00:25;;;;;;;20.83;13.60;;;2.20;99.90;;;;;;5007195;28;20061;-75
2022/11/21 11:02:54;;;;;;;24.38;15.38;;;2.00;99.90;;;;;;5006520;28;20046;-76
2022/11/21 11:05:23;;;;;;;20.33;12.18;;;2.00;99.90;;;;;;5005184;28;20438;-75
2022/11/21 11:08:09;;;;;;;17.20;12.97;;;2.20;99.90;;;;;;5002306;28;20039;-75
2022/11/21 11:10:37;;;;;;;15.20;11.82;;;2.30;99.90;;;;;;4986990;28;20085;-75
2022/11/21 11:16:03;;;;;;;18.58;12.85;;;2.40;99.90;;;;;;4987224;28;20057;-75
2022/11/21 11:18:33;;;;;;;16.50;11.73;;;2.50;99.90;;;;;;4987590;28;20046;-76
2022/11/21 11:21:19;;;;;;;16.50;12.85;;;2.50;99.90;;;;;;4987160;28;20046;-76
2022/11/21 11:23:46;;;;;;;18.13;12.35;;;2.60;99.90;;;;;;4987207;28;20044;-75
2022/11/21 11:26:27;;;;;;;18.65;13.27;;;2.70;99.90;;;;;;4986186;28;20069;-74
2022/11/21 11:29:06;;;;;;;17.52;12.90;;;2.70;99.90;;;;;;4987296;28;20137;-75
2022/11/21 11:31:54;;;;;;;16.97;12.53;;;2.60;99.90;;;;;;4986725;28;20042;-76
2022/11/21 11:34:21;;;;;;;14.85;11.77;;;2.60;99.90;;;;;;4986557;28;20061;-75
2022/11/21 11:36:49;;;;;;;14.95;11.43;;;2.60;99.90;;;;;;4987481;28;20043;-75
2022/11/21 11:39:35;;;;;;;17.38;12.25;;;2.60;99.90;;;;;;4988240;28;20043;-75
2022/11/21 11:47:58;;;;;;;24.65;12.48;;;2.80;99.90;;;;;;4988002;28;20409;-75
2022/11/21 11:50:30;;;;;;;19.85;13.77;;;2.90;99.90;;;;;;4986545;28;20074;-76
2022/11/21 11:53:11;;;;;;;14.27;11.02;;;2.90;99.90;;;;;;4969566;28;20050;-74
2022/11/21 11:55:55;;;;;;;17.33;13.30;;;2.90;99.90;;;;;;4985229;28;20089;-74
2022/11/21 11:58:48;;;;;;;17.35;12.80;;;3.00;99.90;;;;;;4987450;28;20046;-74
2022/11/21 12:01:45;;;;;;;15.43;11.50;;;3.10;99.90;;;;;;4968489;28;20086;-75
2022/11/21 12:04:20;;;;;;;13.68;10.27;;;3.20;99.90;;;;;;4984562;28;20046;-75
2022/11/21 12:06:51;;;;;;;18.17;11.45;;;3.20;99.90;;;;;;4987140;28;20508;-75
2022/11/21 12:09:39;;;;;;;13.55;11.60;;;3.20;99.90;;;;;;5004433;28;20078;-75
2022/11/21 12:12:15;;;;;;;14.55;10.75;;;3.20;99.90;;;;;;5006683;28;20042;-75
2022/11/21 12:18:08;;;;;;;16.40;11.50;;;3.20;99.90;;;;;;5007686;28;20081;-75
2022/11/21 12:20:54;;;;;;;12.98;10.02;;;3.30;99.90;;;;;;5009386;28;20049;-75
2022/11/21 12:23:22;;;;;;;15.50;11.65;;;3.30;99.90;;;;;;4982105;28;20127;-75
2022/11/21 12:26:14;;;;;;;15.85;11.52;;;3.30;99.90;;;;;;5011313;28;20046;-75
2022/11/21 12:29:06;;;;;;;18.00;12.52;;;3.50;99.90;;;;;;5010842;28;20056;-74
2022/11/21 12:32:05;;;;;;;17.80;13.07;;;3.50;99.90;;;;;;5010756;28;20102;-75
2022/11/21 12:34:53;;;;;;;15.63;12.57;;;3.50;99.90;;;;;;5008801;28;20046;-76
2022/11/21 12:37:49;;;;;;;15.23;10.98;;;3.40;99.90;;;;;;5008980;28;20052;-76
2022/11/21 12:40:57;;;;;;;16.40;12.90;;;3.20;99.90;;;;;;4990418;28;20110;-75
2022/11/21 12:43:46;;;;;;;16.38;11.98;;;3.30;99.90;;;;;;4972443;28;20081;-75
2022/11/21 12:46:35;;;;;;;17.20;12.75;;;3.20;99.90;;;;;;4989987;28;20406;-75
2022/11/21 12:55:27;;;;;;;17.20;12.32;;;3.20;99.90;;;;;;4989640;28;20632;-75
2022/11/21 12:58:18;;;;;;;15.73;12.25;;;3.30;99.90;;;;;;4990600;28;20050;-74
2022/11/21 13:01:02;;;;;;;16.55;12.95;;;3.30;99.90;;;;;;4990157;28;20401;-75
2022/11/21 13:04:04;;;;;;;18.63;12.82;;;3.40;99.90;;;;;;4988452;28;20065;-75
2022/11/21 13:06:37;;;;;;;16.33;11.98;;;3.40;99.90;;;;;;4989817;28;20445;-75
2022/11/21 13:09:07;;;;;;;17.15;12.82;;;3.50;99.90;;;;;;4989724;28;20038;-74
2022/11/21 13:14:28;;;;;;;14.57;11.45;;;3.60;99.90;;;;;;4988655;28;20066;-74
2022/11/21 13:17:19;;;;;;;17.67;14.15;;;3.50;99.90;;;;;;4988481;28;20054;-76
2022/11/21 13:19:55;;;;;;;16.73;12.25;;;3.60;99.90;;;;;;4988658;28;20520;-76
2022/11/21 13:22:36;;;;;;;16.95;12.63;;;3.80;99.90;;;;;;4971329;28;20120;-75
2022/11/21 13:25:09;;;;;;;19.25;13.68;;;3.80;99.90;;;;;;4988791;28;20088;-75
2022/11/21 13:27:39;;;;;;;17.90;14.40;;;3.90;99.90;;;;;;4989032;28;20053;-76